sensor_id;sensor_type;location;lat;lon;timestamp;P1;durP1;ratioP1;P2;durP2;ratioP2
81960;SDS011;71462;50.650;6.888;2023-12-04T00:01:43;12.45;;;5.85;;
81960;SDS011;71462;50.650;6.888;2023-12-04T00:04:12;12.52;;;6.10;;
81960;SDS011;71462;50.650;6.888;2023-12-04T00:06:40;11.85;;;5.68;;
81960;SDS011;71462;50.650;6.888;2023-12-04T00:09:09;13.60;;;5.50;;
81960;SDS011;71462;50.650;6.888;2023-12-04T00:11:36;12.52;;;6.05;;
81960;SDS011;71462;50.650;6.888;2023-12-04T00:14:04;10.13;;;5.10;;
81960;SDS011;71462;50.650;6.888;2023-12-04T00:16:34;12.65;;;6.45;;
81960;SDS011;71462;50.650;6.888;2023-12-04T00:19:02;14.30;;;5.47;;
81960;SDS011;71462;50.650;6.888;2023-12-04T00:21:30;10.75;;;4.90;;
81960;SDS011;71462;50.650;6.888;2023-12-04T00:23:58;11.25;;;5.20;;
81960;SDS011;71462;50.650;6.888;2023-12-04T00:26:26;10.60;;;4.47;;
81960;SDS011;71462;50.650;6.888;2023-12-04T00:28:56;13.30;;;5.25;;
81960;SDS011;71462;50.650;6.888;2023-12-04T00:31:24;12.15;;;5.28;;
81960;SDS011;71462;50.650;6.888;2023-12-04T00:33:54;10.73;;;5.32;;
81960;SDS011;71462;50.650;6.888;2023-12-04T00:36:21;13.02;;;6.05;;
81960;SDS011;71462;50.650;6.888;2023-12-04T00:38:49;11.70;;;5.78;;
81960;SDS011;71462;50.650;6.888;2023-12-04T00:41:17;10.75;;;5.22;;
81960;SDS011;71462;50.650;6.888;2023-12-04T00:43:45;17.45;;;6.38;;
81960;SDS011;71462;50.650;6.888;2023-12-04T00:46:12;8.77;;;4.70;;
81960;SDS011;71462;50.650;6.888;2023-12-04T00:48:40;13.57;;;7.45;;
81960;SDS011;71462;50.650;6.888;2023-12-04T00:51:09;12.18;;;6.25;;
81960;SDS011;71462;50.650;6.888;2023-12-04T00:53:37;11.23;;;5.65;;
81960;SDS011;71462;50.650;6.888;2023-12-04T00:56:05;11.27;;;5.15;;
81960;SDS011;71462;50.650;6.888;2023-12-04T00:58:33;11.15;;;5.50;;
81960;SDS011;71462;50.650;6.888;2023-12-04T01:01:01;11.88;;;5.10;;
81960;SDS011;71462;50.650;6.888;2023-12-04T01:03:29;10.93;;;5.00;;
81960;SDS011;71462;50.650;6.888;2023-12-04T01:05:59;9.77;;;5.10;;
81960;SDS011;71462;50.650;6.888;2023-12-04T01:08:28;9.02;;;4.53;;
81960;SDS011;71462;50.650;6.888;2023-12-04T01:10:56;10.70;;;4.85;;
81960;SDS011;71462;50.650;6.888;2023-12-04T01:13:23;11.07;;;4.85;;
81960;SDS011;71462;50.650;6.888;2023-12-04T01:15:51;9.10;;;4.65;;
81960;SDS011;71462;50.650;6.888;2023-12-04T01:18:19;9.82;;;4.88;;
81960;SDS011;71462;50.650;6.888;2023-12-04T01:20:47;9.43;;;4.80;;
81960;SDS011;71462;50.650;6.888;2023-12-04T01:23:14;8.30;;;4.13;;
81960;SDS011;71462;50.650;6.888;2023-12-04T01:25:44;11.65;;;5.05;;
81960;SDS011;71462;50.650;6.888;2023-12-04T01:28:14;9.02;;;4.32;;
81960;SDS011;71462;50.650;6.888;2023-12-04T01:30:42;10.35;;;4.85;;
81960;SDS011;71462;50.650;6.888;2023-12-04T01:33:10;8.02;;;4.13;;
81960;SDS011;71462;50.650;6.888;2023-12-04T01:35:38;9.50;;;4.18;;
81960;SDS011;71462;50.650;6.888;2023-12-04T01:38:05;9.93;;;4.57;;
81960;SDS011;71462;50.650;6.888;2023-12-04T01:40:34;9.07;;;4.20;;
81960;SDS011;71462;50.650;6.888;2023-12-04T01:43:04;7.43;;;3.58;;
81960;SDS011;71462;50.650;6.888;2023-12-04T01:45:32;8.05;;;3.97;;
81960;SDS011;71462;50.650;6.888;2023-12-04T01:48:00;8.55;;;4.10;;
81960;SDS011;71462;50.650;6.888;2023-12-04T01:50:28;12.98;;;4.95;;
81960;SDS011;71462;50.650;6.888;2023-12-04T01:52:56;11.15;;;5.13;;
81960;SDS011;71462;50.650;6.888;2023-12-04T01:55:26;10.63;;;5.07;;
81960;SDS011;71462;50.650;6.888;2023-12-04T01:57:54;10.32;;;4.70;;
81960;SDS011;71462;50.650;6.888;2023-12-04T02:00:24;11.00;;;5.53;;
81960;SDS011;71462;50.650;6.888;2023-12-04T02:02:53;8.35;;;4.22;;
81960;SDS011;71462;50.650;6.888;2023-12-04T02:05:20;12.27;;;5.70;;
81960;SDS011;71462;50.650;6.888;2023-12-04T02:07:49;12.55;;;6.22;;
81960;SDS011;71462;50.650;6.888;2023-12-04T02:10:17;14.25;;;6.43;;
81960;SDS011;71462;50.650;6.888;2023-12-04T02:12:45;13.35;;;6.47;;
81960;SDS011;71462;50.650;6.888;2023-12-04T02:15:13;13.00;;;6.15;;
81960;SDS011;71462;50.650;6.888;2023-12-04T02:17:42;11.82;;;5.70;;
81960;SDS011;71462;50.650;6.888;2023-12-04T02:20:12;12.35;;;6.15;;
81960;SDS011;71462;50.650;6.888;2023-12-04T02:22:40;12.25;;;4.97;;
81960;SDS011;71462;50.650;6.888;2023-12-04T02:25:09;12.35;;;6.32;;
81960;SDS011;71462;50.650;6.888;2023-12-04T02:27:58;12.35;;;5.15;;
81960;SDS011;71462;50.650;6.888;2023-12-04T02:30:28;11.60;;;5.13;;
81960;SDS011;71462;50.650;6.888;2023-12-04T02:33:00;8.57;;;4.20;;
81960;SDS011;71462;50.650;6.888;2023-12-04T02:35:31;10.35;;;4.32;;
81960;SDS011;71462;50.650;6.888;2023-12-04T02:38:01;10.30;;;4.20;;
81960;SDS011;71462;50.650;6.888;2023-12-04T02:40:31;8.00;;;4.30;;
81960;SDS011;71462;50.650;6.888;2023-12-04T02:42:59;10.15;;;4.55;;
81960;SDS011;71462;50.650;6.888;2023-12-04T02:45:26;12.02;;;5.88;;
81960;SDS011;71462;50.650;6.888;2023-12-04T02:47:55;8.45;;;3.90;;
81960;SDS011;71462;50.650;6.888;2023-12-04T02:50:23;8.55;;;4.13;;
81960;SDS011;71462;50.650;6.888;2023-12-04T02:52:51;9.32;;;4.38;;
81960;SDS011;71462;50.650;6.888;2023-12-04T02:55:18;11.23;;;4.88;;
81960;SDS011;71462;50.650;6.888;2023-12-04T02:57:47;9.77;;;5.00;;
81960;SDS011;71462;50.650;6.888;2023-12-04T03:00:16;9.15;;;5.20;;
81960;SDS011;71462;50.650;6.888;2023-12-04T03:02:44;10.48;;;4.75;;
81960;SDS011;71462;50.650;6.888;2023-12-04T03:05:11;10.57;;;4.50;;
81960;SDS011;71462;50.650;6.888;2023-12-04T03:07:39;7.72;;;4.03;;
81960;SDS011;71462;50.650;6.888;2023-12-04T03:10:08;9.02;;;4.38;;
81960;SDS011;71462;50.650;6.888;2023-12-04T03:12:37;5.28;;;3.20;;
81960;SDS011;71462;50.650;6.888;2023-12-04T03:15:07;5.00;;;2.65;;
81960;SDS011;71462;50.650;6.888;2023-12-04T03:17:36;4.45;;;2.42;;
81960;SDS011;71462;50.650;6.888;2023-12-04T03:20:04;5.93;;;3.00;;
81960;SDS011;71462;50.650;6.888;2023-12-04T03:22:34;6.65;;;2.85;;
81960;SDS011;71462;50.650;6.888;2023-12-04T03:25:03;5.93;;;2.92;;
81960;SDS011;71462;50.650;6.888;2023-12-04T03:27:32;8.70;;;4.32;;
81960;SDS011;71462;50.650;6.888;2023-12-04T03:30:00;6.75;;;3.58;;
81960;SDS011;71462;50.650;6.888;2023-12-04T03:32:30;9.73;;;4.75;;
81960;SDS011;71462;50.650;6.888;2023-12-04T03:34:57;14.70;;;5.40;;
81960;SDS011;71462;50.650;6.888;2023-12-04T03:37:25;10.35;;;5.70;;
81960;SDS011;71462;50.650;6.888;2023-12-04T03:39:53;11.52;;;6.18;;
81960;SDS011;71462;50.650;6.888;2023-12-04T03:42:20;11.70;;;6.00;;
81960;SDS011;71462;50.650;6.888;2023-12-04T03:44:48;12.20;;;6.20;;
81960;SDS011;71462;50.650;6.888;2023-12-04T03:47:15;15.70;;;7.25;;
81960;SDS011;71462;50.650;6.888;2023-12-04T03:49:44;11.15;;;6.00;;
81960;SDS011;71462;50.650;6.888;2023-12-04T03:52:12;10.48;;;5.38;;
81960;SDS011;71462;50.650;6.888;2023-12-04T03:54:39;9.63;;;4.03;;
81960;SDS011;71462;50.650;6.888;2023-12-04T03:57:09;9.57;;;4.47;;
81960;SDS011;71462;50.650;6.888;2023-12-04T03:59:37;8.80;;;4.40;;
81960;SDS011;71462;50.650;6.888;2023-12-04T04:02:04;7.90;;;3.38;;
81960;SDS011;71462;50.650;6.888;2023-12-04T04:04:32;10.55;;;5.10;;
81960;SDS011;71462;50.650;6.888;2023-12-04T04:07:01;11.65;;;4.80;;
81960;SDS011;71462;50.650;6.888;2023-12-04T04:09:29;9.88;;;5.25;;
81960;SDS011;71462;50.650;6.888;2023-12-04T04:11:57;10.30;;;3.55;;
81960;SDS011;71462;50.650;6.888;2023-12-04T04:14:25;8.77;;;4.03;;
81960;SDS011;71462;50.650;6.888;2023-12-04T04:16:53;7.75;;;4.20;;
81960;SDS011;71462;50.650;6.888;2023-12-04T04:19:20;9.60;;;4.60;;
81960;SDS011;71462;50.650;6.888;2023-12-04T04:21:48;9.60;;;4.80;;
81960;SDS011;71462;50.650;6.888;2023-12-04T04:24:17;8.68;;;4.40;;
81960;SDS011;71462;50.650;6.888;2023-12-04T04:26:45;11.55;;;5.65;;
81960;SDS011;71462;50.650;6.888;2023-12-04T04:29:12;9.10;;;4.10;;
81960;SDS011;71462;50.650;6.888;2023-12-04T04:31:40;13.27;;;6.50;;
81960;SDS011;71462;50.650;6.888;2023-12-04T04:34:07;12.82;;;6.25;;
81960;SDS011;71462;50.650;6.888;2023-12-04T04:36:35;12.57;;;6.55;;
81960;SDS011;71462;50.650;6.888;2023-12-04T04:39:03;12.13;;;5.45;;
81960;SDS011;71462;50.650;6.888;2023-12-04T04:41:32;9.45;;;4.80;;
81960;SDS011;71462;50.650;6.888;2023-12-04T04:44:01;11.60;;;5.75;;
81960;SDS011;71462;50.650;6.888;2023-12-04T04:46:29;14.95;;;7.30;;
81960;SDS011;71462;50.650;6.888;2023-12-04T04:48:57;11.75;;;5.97;;
81960;SDS011;71462;50.650;6.888;2023-12-04T04:51:27;12.80;;;6.00;;
81960;SDS011;71462;50.650;6.888;2023-12-04T04:53:55;14.35;;;7.25;;
81960;SDS011;71462;50.650;6.888;2023-12-04T04:56:22;11.95;;;5.47;;
81960;SDS011;71462;50.650;6.888;2023-12-04T04:58:51;11.48;;;5.90;;
81960;SDS011;71462;50.650;6.888;2023-12-04T05:01:19;10.95;;;5.88;;
81960;SDS011;71462;50.650;6.888;2023-12-04T05:03:49;11.80;;;6.18;;
81960;SDS011;71462;50.650;6.888;2023-12-04T05:06:16;11.55;;;6.25;;
81960;SDS011;71462;50.650;6.888;2023-12-04T05:08:44;16.17;;;5.75;;
81960;SDS011;71462;50.650;6.888;2023-12-04T05:11:16;14.18;;;6.63;;
81960;SDS011;71462;50.650;6.888;2023-12-04T05:13:44;13.52;;;6.25;;
81960;SDS011;71462;50.650;6.888;2023-12-04T05:16:13;10.10;;;5.53;;
81960;SDS011;71462;50.650;6.888;2023-12-04T05:18:41;13.10;;;5.93;;
81960;SDS011;71462;50.650;6.888;2023-12-04T05:21:09;13.85;;;6.72;;
81960;SDS011;71462;50.650;6.888;2023-12-04T05:23:36;9.93;;;5.03;;
81960;SDS011;71462;50.650;6.888;2023-12-04T05:26:04;12.20;;;6.70;;
81960;SDS011;71462;50.650;6.888;2023-12-04T05:28:33;7.30;;;3.50;;
81960;SDS011;71462;50.650;6.888;2023-12-04T05:31:00;10.23;;;4.75;;
81960;SDS011;71462;50.650;6.888;2023-12-04T05:33:30;11.20;;;6.32;;
81960;SDS011;71462;50.650;6.888;2023-12-04T05:35:57;11.60;;;5.75;;
81960;SDS011;71462;50.650;6.888;2023-12-04T05:38:27;8.07;;;3.95;;
81960;SDS011;71462;50.650;6.888;2023-12-04T05:40:54;8.50;;;4.53;;
81960;SDS011;71462;50.650;6.888;2023-12-04T05:43:22;10.52;;;5.07;;
81960;SDS011;71462;50.650;6.888;2023-12-04T05:45:49;9.25;;;4.57;;
81960;SDS011;71462;50.650;6.888;2023-12-04T05:48:18;8.82;;;5.00;;
81960;SDS011;71462;50.650;6.888;2023-12-04T05:50:47;11.32;;;6.03;;
81960;SDS011;71462;50.650;6.888;2023-12-04T05:53:14;12.32;;;5.18;;
81960;SDS011;71462;50.650;6.888;2023-12-04T05:55:42;11.93;;;5.82;;
81960;SDS011;71462;50.650;6.888;2023-12-04T05:58:09;12.13;;;6.50;;
81960;SDS011;71462;50.650;6.888;2023-12-04T06:00:37;9.27;;;4.60;;
81960;SDS011;71462;50.650;6.888;2023-12-04T06:03:04;21.67;;;8.18;;
81960;SDS011;71462;50.650;6.888;2023-12-04T06:05:32;14.00;;;6.53;;
81960;SDS011;71462;50.650;6.888;2023-12-04T06:08:01;15.13;;;6.50;;
81960;SDS011;71462;50.650;6.888;2023-12-04T06:10:29;15.55;;;7.22;;
81960;SDS011;71462;50.650;6.888;2023-12-04T06:12:56;14.85;;;7.60;;
81960;SDS011;71462;50.650;6.888;2023-12-04T06:15:24;15.35;;;7.72;;
81960;SDS011;71462;50.650;6.888;2023-12-04T06:17:51;18.83;;;8.95;;
81960;SDS011;71462;50.650;6.888;2023-12-04T06:20:19;17.60;;;9.27;;
81960;SDS011;71462;50.650;6.888;2023-12-04T06:22:47;18.10;;;8.57;;
81960;SDS011;71462;50.650;6.888;2023-12-04T06:25:17;15.60;;;8.57;;
81960;SDS011;71462;50.650;6.888;2023-12-04T06:27:45;16.90;;;8.65;;
81960;SDS011;71462;50.650;6.888;2023-12-04T06:30:13;17.00;;;7.40;;
81960;SDS011;71462;50.650;6.888;2023-12-04T06:32:42;17.08;;;9.40;;
81960;SDS011;71462;50.650;6.888;2023-12-04T06:35:10;21.77;;;10.23;;
81960;SDS011;71462;50.650;6.888;2023-12-04T06:37:41;12.95;;;6.45;;
81960;SDS011;71462;50.650;6.888;2023-12-04T06:40:12;23.52;;;10.95;;
81960;SDS011;71462;50.650;6.888;2023-12-04T06:42:42;17.15;;;8.48;;
81960;SDS011;71462;50.650;6.888;2023-12-04T06:45:10;19.08;;;8.57;;
81960;SDS011;71462;50.650;6.888;2023-12-04T06:47:39;16.90;;;8.07;;
81960;SDS011;71462;50.650;6.888;2023-12-04T06:50:07;20.10;;;10.48;;
81960;SDS011;71462;50.650;6.888;2023-12-04T06:52:35;15.50;;;9.05;;
81960;SDS011;71462;50.650;6.888;2023-12-04T06:55:03;19.98;;;10.05;;
81960;SDS011;71462;50.650;6.888;2023-12-04T06:57:31;15.55;;;7.20;;
81960;SDS011;71462;50.650;6.888;2023-12-04T07:00:00;21.65;;;11.40;;
81960;SDS011;71462;50.650;6.888;2023-12-04T07:02:45;18.02;;;8.35;;
81960;SDS011;71462;50.650;6.888;2023-12-04T07:05:15;16.65;;;7.95;;
81960;SDS011;71462;50.650;6.888;2023-12-04T07:07:43;15.35;;;7.35;;
81960;SDS011;71462;50.650;6.888;2023-12-04T07:10:10;13.73;;;7.47;;
81960;SDS011;71462;50.650;6.888;2023-12-04T07:12:41;13.15;;;7.05;;
81960;SDS011;71462;50.650;6.888;2023-12-04T07:15:11;12.77;;;6.93;;
81960;SDS011;71462;50.650;6.888;2023-12-04T07:17:39;11.70;;;5.28;;
81960;SDS011;71462;50.650;6.888;2023-12-04T07:20:08;13.85;;;6.93;;
81960;SDS011;71462;50.650;6.888;2023-12-04T07:22:38;16.00;;;7.15;;
81960;SDS011;71462;50.650;6.888;2023-12-04T07:25:05;14.18;;;8.18;;
81960;SDS011;71462;50.650;6.888;2023-12-04T07:27:34;17.23;;;7.53;;
81960;SDS011;71462;50.650;6.888;2023-12-04T07:30:02;10.55;;;5.38;;
81960;SDS011;71462;50.650;6.888;2023-12-04T07:32:32;11.75;;;5.15;;
81960;SDS011;71462;50.650;6.888;2023-12-04T07:35:02;8.80;;;4.22;;
81960;SDS011;71462;50.650;6.888;2023-12-04T07:37:29;11.98;;;5.88;;
81960;SDS011;71462;50.650;6.888;2023-12-04T07:39:58;13.15;;;4.45;;
81960;SDS011;71462;50.650;6.888;2023-12-04T07:42:26;12.90;;;6.13;;
81960;SDS011;71462;50.650;6.888;2023-12-04T07:44:53;10.32;;;4.88;;
81960;SDS011;71462;50.650;6.888;2023-12-04T07:47:21;10.90;;;5.88;;
81960;SDS011;71462;50.650;6.888;2023-12-04T07:49:52;10.73;;;4.50;;
81960;SDS011;71462;50.650;6.888;2023-12-04T07:52:20;6.00;;;3.60;;
81960;SDS011;71462;50.650;6.888;2023-12-04T07:54:47;11.75;;;4.30;;
81960;SDS011;71462;50.650;6.888;2023-12-04T07:57:15;8.45;;;4.82;;
81960;SDS011;71462;50.650;6.888;2023-12-04T07:59:43;14.55;;;7.65;;
81960;SDS011;71462;50.650;6.888;2023-12-04T08:02:14;11.48;;;4.88;;
81960;SDS011;71462;50.650;6.888;2023-12-04T08:04:42;12.95;;;5.50;;
81960;SDS011;71462;50.650;6.888;2023-12-04T08:07:10;14.40;;;7.90;;
81960;SDS011;71462;50.650;6.888;2023-12-04T08:09:38;15.88;;;7.57;;
81960;SDS011;71462;50.650;6.888;2023-12-04T08:12:06;13.18;;;6.50;;
81960;SDS011;71462;50.650;6.888;2023-12-04T08:14:35;19.73;;;9.75;;
81960;SDS011;71462;50.650;6.888;2023-12-04T08:17:02;18.55;;;8.05;;
81960;SDS011;71462;50.650;6.888;2023-12-04T08:19:31;17.35;;;9.77;;
81960;SDS011;71462;50.650;6.888;2023-12-04T08:21:59;17.02;;;7.07;;
81960;SDS011;71462;50.650;6.888;2023-12-04T08:24:28;14.68;;;8.93;;
81960;SDS011;71462;50.650;6.888;2023-12-04T08:27:04;11.68;;;5.03;;
81960;SDS011;71462;50.650;6.888;2023-12-04T08:29:32;12.57;;;6.60;;
81960;SDS011;71462;50.650;6.888;2023-12-04T08:31:59;14.52;;;7.10;;
81960;SDS011;71462;50.650;6.888;2023-12-04T08:34:27;15.10;;;7.72;;
81960;SDS011;71462;50.650;6.888;2023-12-04T08:36:54;13.63;;;6.45;;
81960;SDS011;71462;50.650;6.888;2023-12-04T08:39:22;12.50;;;6.10;;
81960;SDS011;71462;50.650;6.888;2023-12-04T08:41:51;14.02;;;6.90;;
81960;SDS011;71462;50.650;6.888;2023-12-04T08:44:28;13.82;;;6.43;;
81960;SDS011;71462;50.650;6.888;2023-12-04T08:46:56;14.30;;;7.35;;
81960;SDS011;71462;50.650;6.888;2023-12-04T08:49:24;15.20;;;6.88;;
81960;SDS011;71462;50.650;6.888;2023-12-04T08:52:05;16.05;;;6.63;;
81960;SDS011;71462;50.650;6.888;2023-12-04T08:54:32;12.23;;;6.40;;
81960;SDS011;71462;50.650;6.888;2023-12-04T08:57:02;16.27;;;7.80;;
81960;SDS011;71462;50.650;6.888;2023-12-04T08:59:31;16.27;;;8.20;;
81960;SDS011;71462;50.650;6.888;2023-12-04T09:01:59;18.17;;;7.40;;
81960;SDS011;71462;50.650;6.888;2023-12-04T09:04:30;17.35;;;6.82;;
81960;SDS011;71462;50.650;6.888;2023-12-04T09:06:58;17.90;;;7.10;;
81960;SDS011;71462;50.650;6.888;2023-12-04T09:09:28;17.33;;;8.00;;
81960;SDS011;71462;50.650;6.888;2023-12-04T09:11:57;11.90;;;6.25;;
81960;SDS011;71462;50.650;6.888;2023-12-04T09:14:26;17.35;;;8.35;;
81960;SDS011;71462;50.650;6.888;2023-12-04T09:16:55;14.45;;;7.80;;
81960;SDS011;71462;50.650;6.888;2023-12-04T09:19:22;12.18;;;7.05;;
81960;SDS011;71462;50.650;6.888;2023-12-04T09:21:51;19.35;;;8.70;;
81960;SDS011;71462;50.650;6.888;2023-12-04T09:24:33;15.45;;;7.68;;
81960;SDS011;71462;50.650;6.888;2023-12-04T09:27:02;16.98;;;8.18;;
81960;SDS011;71462;50.650;6.888;2023-12-04T09:29:31;18.08;;;8.85;;
81960;SDS011;71462;50.650;6.888;2023-12-04T09:31:58;17.02;;;8.63;;
81960;SDS011;71462;50.650;6.888;2023-12-04T09:34:26;16.02;;;7.38;;
81960;SDS011;71462;50.650;6.888;2023-12-04T09:36:54;15.32;;;8.50;;
81960;SDS011;71462;50.650;6.888;2023-12-04T09:39:34;13.88;;;7.85;;
81960;SDS011;71462;50.650;6.888;2023-12-04T09:42:01;17.23;;;8.38;;
81960;SDS011;71462;50.650;6.888;2023-12-04T09:44:31;14.05;;;6.68;;
81960;SDS011;71462;50.650;6.888;2023-12-04T09:46:59;14.35;;;7.07;;
81960;SDS011;71462;50.650;6.888;2023-12-04T09:49:30;9.65;;;4.93;;
81960;SDS011;71462;50.650;6.888;2023-12-04T09:51:59;10.60;;;4.65;;
81960;SDS011;71462;50.650;6.888;2023-12-04T09:54:29;13.95;;;7.63;;
81960;SDS011;71462;50.650;6.888;2023-12-04T09:56:57;14.13;;;6.63;;
81960;SDS011;71462;50.650;6.888;2023-12-04T09:59:25;14.23;;;6.60;;
81960;SDS011;71462;50.650;6.888;2023-12-04T10:01:56;10.55;;;3.97;;
81960;SDS011;71462;50.650;6.888;2023-12-04T10:04:25;11.15;;;5.45;;
81960;SDS011;71462;50.650;6.888;2023-12-04T10:06:52;9.60;;;4.68;;
81960;SDS011;71462;50.650;6.888;2023-12-04T10:09:20;8.95;;;3.67;;
81960;SDS011;71462;50.650;6.888;2023-12-04T10:11:50;5.65;;;2.97;;
81960;SDS011;71462;50.650;6.888;2023-12-04T10:14:18;5.25;;;3.20;;
81960;SDS011;71462;50.650;6.888;2023-12-04T10:16:47;7.30;;;4.18;;
81960;SDS011;71462;50.650;6.888;2023-12-04T10:19:18;8.35;;;3.70;;
81960;SDS011;71462;50.650;6.888;2023-12-04T10:21:48;5.95;;;3.30;;
81960;SDS011;71462;50.650;6.888;2023-12-04T10:24:26;7.50;;;3.67;;
81960;SDS011;71462;50.650;6.888;2023-12-04T10:26:56;7.53;;;3.67;;
81960;SDS011;71462;50.650;6.888;2023-12-04T10:29:26;6.28;;;3.28;;
81960;SDS011;71462;50.650;6.888;2023-12-04T10:31:54;7.55;;;4.00;;
81960;SDS011;71462;50.650;6.888;2023-12-04T10:34:23;8.82;;;3.78;;
81960;SDS011;71462;50.650;6.888;2023-12-04T10:36:52;7.43;;;3.45;;
81960;SDS011;71462;50.650;6.888;2023-12-04T10:39:20;7.18;;;3.60;;
81960;SDS011;71462;50.650;6.888;2023-12-04T10:41:58;7.18;;;3.35;;
81960;SDS011;71462;50.650;6.888;2023-12-04T10:44:29;7.53;;;3.42;;
81960;SDS011;71462;50.650;6.888;2023-12-04T10:47:01;7.65;;;3.90;;
81960;SDS011;71462;50.650;6.888;2023-12-04T10:49:31;11.90;;;6.25;;
81960;SDS011;71462;50.650;6.888;2023-12-04T10:51:59;14.35;;;5.95;;
81960;SDS011;71462;50.650;6.888;2023-12-04T10:54:27;11.60;;;6.15;;
81960;SDS011;71462;50.650;6.888;2023-12-04T10:56:56;9.52;;;5.13;;
81960;SDS011;71462;50.650;6.888;2023-12-04T10:59:28;16.13;;;8.63;;
81960;SDS011;71462;50.650;6.888;2023-12-04T11:02:04;11.75;;;5.32;;
81960;SDS011;71462;50.650;6.888;2023-12-04T11:04:36;14.50;;;5.82;;
81960;SDS011;71462;50.650;6.888;2023-12-04T11:07:05;14.63;;;6.80;;
81960;SDS011;71462;50.650;6.888;2023-12-04T11:09:34;17.10;;;7.80;;
81960;SDS011;71462;50.650;6.888;2023-12-04T11:12:04;19.27;;;9.02;;
81960;SDS011;71462;50.650;6.888;2023-12-04T11:14:37;15.55;;;8.27;;
81960;SDS011;71462;50.650;6.888;2023-12-04T11:17:10;14.20;;;8.07;;
81960;SDS011;71462;50.650;6.888;2023-12-04T11:19:46;17.70;;;8.50;;
81960;SDS011;71462;50.650;6.888;2023-12-04T11:22:19;16.55;;;8.32;;
81960;SDS011;71462;50.650;6.888;2023-12-04T11:24:48;20.75;;;9.13;;
81960;SDS011;71462;50.650;6.888;2023-12-04T11:27:16;18.25;;;10.13;;
81960;SDS011;71462;50.650;6.888;2023-12-04T11:29:45;18.73;;;8.90;;
81960;SDS011;71462;50.650;6.888;2023-12-04T11:32:14;18.58;;;11.13;;
81960;SDS011;71462;50.650;6.888;2023-12-04T11:34:50;19.25;;;10.35;;
81960;SDS011;71462;50.650;6.888;2023-12-04T11:37:19;18.70;;;9.50;;
81960;SDS011;71462;50.650;6.888;2023-12-04T11:39:47;20.65;;;11.73;;
81960;SDS011;71462;50.650;6.888;2023-12-04T11:42:21;18.98;;;11.20;;
81960;SDS011;71462;50.650;6.888;2023-12-04T11:44:54;21.10;;;11.32;;
81960;SDS011;71462;50.650;6.888;2023-12-04T11:47:24;23.33;;;13.05;;
81960;SDS011;71462;50.650;6.888;2023-12-04T11:49:53;23.63;;;12.65;;
81960;SDS011;71462;50.650;6.888;2023-12-04T11:52:31;20.30;;;11.13;;
81960;SDS011;71462;50.650;6.888;2023-12-04T11:55:00;19.77;;;10.93;;
81960;SDS011;71462;50.650;6.888;2023-12-04T11:57:34;24.70;;;12.68;;
81960;SDS011;71462;50.650;6.888;2023-12-04T12:00:13;16.08;;;7.50;;
81960;SDS011;71462;50.650;6.888;2023-12-04T12:02:48;24.67;;;13.48;;
81960;SDS011;71462;50.650;6.888;2023-12-04T12:05:49;27.33;;;14.05;;
81960;SDS011;71462;50.650;6.888;2023-12-04T12:08:19;28.10;;;14.30;;
81960;SDS011;71462;50.650;6.888;2023-12-04T12:10:47;22.70;;;11.73;;
81960;SDS011;71462;50.650;6.888;2023-12-04T12:13:14;21.08;;;11.15;;
81960;SDS011;71462;50.650;6.888;2023-12-04T12:15:42;18.83;;;10.90;;
81960;SDS011;71462;50.650;6.888;2023-12-04T12:18:10;21.13;;;10.10;;
81960;SDS011;71462;50.650;6.888;2023-12-04T12:20:38;20.83;;;10.15;;
81960;SDS011;71462;50.650;6.888;2023-12-04T12:23:06;19.23;;;11.77;;
81960;SDS011;71462;50.650;6.888;2023-12-04T12:25:34;15.85;;;7.65;;
81960;SDS011;71462;50.650;6.888;2023-12-04T12:28:02;26.63;;;15.27;;
81960;SDS011;71462;50.650;6.888;2023-12-04T12:30:30;23.73;;;12.13;;
81960;SDS011;71462;50.650;6.888;2023-12-04T12:32:58;20.67;;;12.18;;
81960;SDS011;71462;50.650;6.888;2023-12-04T12:35:25;21.00;;;9.88;;
81960;SDS011;71462;50.650;6.888;2023-12-04T12:37:53;28.98;;;15.55;;
81960;SDS011;71462;50.650;6.888;2023-12-04T12:40:24;25.25;;;12.30;;
81960;SDS011;71462;50.650;6.888;2023-12-04T12:43:02;24.65;;;13.70;;
81960;SDS011;71462;50.650;6.888;2023-12-04T12:45:38;30.25;;;14.73;;
81960;SDS011;71462;50.650;6.888;2023-12-04T12:50:37;24.17;;;13.13;;
81960;SDS011;71462;50.650;6.888;2023-12-04T12:53:04;23.85;;;12.10;;
81960;SDS011;71462;50.650;6.888;2023-12-04T12:55:33;29.08;;;15.88;;
81960;SDS011;71462;50.650;6.888;2023-12-04T12:58:05;26.30;;;12.75;;
81960;SDS011;71462;50.650;6.888;2023-12-04T13:00:34;27.52;;;13.55;;
81960;SDS011;71462;50.650;6.888;2023-12-04T13:03:02;19.75;;;11.65;;
81960;SDS011;71462;50.650;6.888;2023-12-04T13:05:30;22.15;;;11.80;;
81960;SDS011;71462;50.650;6.888;2023-12-04T13:07:59;26.70;;;15.73;;
81960;SDS011;71462;50.650;6.888;2023-12-04T13:10:26;18.17;;;9.35;;
81960;SDS011;71462;50.650;6.888;2023-12-04T13:12:55;26.80;;;13.43;;
81960;SDS011;71462;50.650;6.888;2023-12-04T13:15:23;18.30;;;8.43;;
81960;SDS011;71462;50.650;6.888;2023-12-04T13:17:51;20.83;;;10.60;;
81960;SDS011;71462;50.650;6.888;2023-12-04T13:20:19;21.92;;;11.43;;
81960;SDS011;71462;50.650;6.888;2023-12-04T13:22:46;21.33;;;11.90;;
81960;SDS011;71462;50.650;6.888;2023-12-04T13:25:14;24.23;;;12.80;;
81960;SDS011;71462;50.650;6.888;2023-12-04T13:27:42;18.90;;;10.15;;
81960;SDS011;71462;50.650;6.888;2023-12-04T13:30:11;22.98;;;11.13;;
81960;SDS011;71462;50.650;6.888;2023-12-04T13:32:39;21.83;;;12.25;;
81960;SDS011;71462;50.650;6.888;2023-12-04T13:35:07;19.02;;;10.23;;
81960;SDS011;71462;50.650;6.888;2023-12-04T13:37:35;17.38;;;9.13;;
81960;SDS011;71462;50.650;6.888;2023-12-04T13:40:05;22.45;;;10.98;;
81960;SDS011;71462;50.650;6.888;2023-12-04T13:42:34;19.13;;;10.98;;
81960;SDS011;71462;50.650;6.888;2023-12-04T13:45:21;21.02;;;10.93;;
81960;SDS011;71462;50.650;6.888;2023-12-04T13:47:49;21.67;;;11.93;;
81960;SDS011;71462;50.650;6.888;2023-12-04T13:50:17;17.90;;;7.72;;
81960;SDS011;71462;50.650;6.888;2023-12-04T13:52:44;18.60;;;9.93;;
81960;SDS011;71462;50.650;6.888;2023-12-04T13:55:20;22.95;;;13.27;;
81960;SDS011;71462;50.650;6.888;2023-12-04T13:58:08;18.00;;;9.75;;
81960;SDS011;71462;50.650;6.888;2023-12-04T14:00:55;18.60;;;9.35;;
81960;SDS011;71462;50.650;6.888;2023-12-04T14:03:23;18.45;;;9.98;;
81960;SDS011;71462;50.650;6.888;2023-12-04T14:05:52;23.00;;;10.27;;
81960;SDS011;71462;50.650;6.888;2023-12-04T14:08:21;13.20;;;6.70;;
81960;SDS011;71462;50.650;6.888;2023-12-04T14:10:49;19.30;;;11.20;;
81960;SDS011;71462;50.650;6.888;2023-12-04T14:13:17;14.50;;;7.63;;
81960;SDS011;71462;50.650;6.888;2023-12-04T14:15:45;17.38;;;9.40;;
81960;SDS011;71462;50.650;6.888;2023-12-04T14:18:13;16.70;;;8.48;;
81960;SDS011;71462;50.650;6.888;2023-12-04T14:20:41;15.85;;;9.93;;
81960;SDS011;71462;50.650;6.888;2023-12-04T14:23:09;18.90;;;9.77;;
81960;SDS011;71462;50.650;6.888;2023-12-04T14:25:36;20.15;;;10.98;;
81960;SDS011;71462;50.650;6.888;2023-12-04T14:28:04;17.67;;;9.38;;
81960;SDS011;71462;50.650;6.888;2023-12-04T14:30:31;20.55;;;12.48;;
81960;SDS011;71462;50.650;6.888;2023-12-04T14:32:59;19.05;;;10.20;;
81960;SDS011;71462;50.650;6.888;2023-12-04T14:35:28;18.25;;;9.90;;
81960;SDS011;71462;50.650;6.888;2023-12-04T14:37:55;15.93;;;9.30;;
81960;SDS011;71462;50.650;6.888;2023-12-04T14:40:23;14.13;;;8.10;;
81960;SDS011;71462;50.650;6.888;2023-12-04T14:42:51;15.27;;;8.20;;
81960;SDS011;71462;50.650;6.888;2023-12-04T14:45:19;19.00;;;8.93;;
81960;SDS011;71462;50.650;6.888;2023-12-04T14:47:48;10.93;;;5.38;;
81960;SDS011;71462;50.650;6.888;2023-12-04T14:50:21;17.10;;;9.27;;